Time;durP1;ratioP1;P1;durP2;ratioP2;P2;SDS_P1;SDS_P2;PMS_P1;PMS_P2;Temp;Humidity;BMP_temperature;BMP_pressure;BME280_temperature;BME280_humidity;BME280_pressure;Samples;Min_cycle;Max_cycle;Signal;HPM_P1;HPM_P2
2024/02/24 00:01:57;;;;;;;5.78;3.78;;;7.10;99.90;;;;;;5023512;28;20219;-65
2024/02/24 00:04:23;;;;;;;7.25;3.70;;;7.10;99.90;;;;;;5024165;28;20184;-65
2024/02/24 00:06:49;;;;;;;7.28;4.05;;;7.10;99.90;;;;;;5024250;28;20188;-65
2024/02/24 00:09:14;;;;;;;7.22;3.55;;;7.00;99.90;;;;;;5024193;28;20335;-65
2024/02/24 00:11:40;;;;;;;10.30;3.63;;;7.00;99.90;;;;;;5024482;28;20180;-63
2024/02/24 00:14:06;;;;;;;8.13;3.53;;;7.00;99.90;;;;;;5022900;28;21130;-65
2024/02/24 00:16:31;;;;;;;7.63;3.55;;;7.00;99.90;;;;;;5027254;28;20199;-63
2024/02/24 00:18:59;;;;;;;6.60;3.35;;;7.00;99.90;;;;;;5023903;28;21015;-63
2024/02/24 00:21:26;;;;;;;6.80;3.15;;;7.00;99.90;;;;;;5023960;28;20215;-62
2024/02/24 00:23:51;;;;;;;7.45;3.40;;;7.00;99.90;;;;;;5023444;28;20192;-64
2024/02/24 00:26:17;;;;;;;6.82;3.65;;;7.00;99.90;;;;;;5024044;28;20211;-63
2024/02/24 00:28:43;;;;;;;7.35;3.90;;;7.10;99.90;;;;;;5023900;28;20198;-62
2024/02/24 00:31:08;;;;;;;6.15;3.55;;;7.10;99.90;;;;;;5023729;28;20688;-64
2024/02/24 00:33:34;;;;;;;8.18;3.80;;;7.00;99.90;;;;;;5023967;28;20180;-64
2024/02/24 00:36:00;;;;;;;6.47;4.10;;;7.00;99.90;;;;;;5023768;28;20210;-64
2024/02/24 00:38:26;;;;;;;8.82;3.67;;;7.00;99.90;;;;;;5023398;28;20354;-64
2024/02/24 00:40:51;;;;;;;7.72;3.67;;;7.00;99.90;;;;;;5023634;28;20267;-62
2024/02/24 00:43:17;;;;;;;9.13;4.20;;;7.00;99.90;;;;;;5023262;28;20246;-65
2024/02/24 00:45:43;;;;;;;6.20;3.65;;;6.90;99.90;;;;;;5023642;28;20564;-63
2024/02/24 00:48:09;;;;;;;6.38;3.40;;;6.90;99.90;;;;;;5038379;28;20196;-66
2024/02/24 00:50:34;;;;;;;8.32;3.80;;;6.90;99.90;;;;;;5023600;28;21026;-66
2024/02/24 00:53:00;;;;;;;9.35;3.70;;;6.80;99.90;;;;;;5023537;28;20717;-64
2024/02/24 00:55:26;;;;;;;7.32;3.80;;;6.80;99.90;;;;;;5023011;28;20192;-65
2024/02/24 00:57:52;;;;;;;8.70;3.97;;;6.70;99.90;;;;;;5022954;28;20246;-63
2024/02/24 01:00:18;;;;;;;9.77;4.40;;;6.70;99.90;;;;;;5007136;28;20566;-63
2024/02/24 01:02:44;;;;;;;8.88;4.50;;;6.60;99.90;;;;;;5022894;28;20226;-63
2024/02/24 01:05:09;;;;;;;9.20;4.43;;;6.60;99.90;;;;;;5023345;28;20196;-63
2024/02/24 01:07:35;;;;;;;7.03;4.32;;;6.60;99.90;;;;;;5022889;28;20287;-63
2024/02/24 01:10:01;;;;;;;9.00;4.40;;;6.50;99.90;;;;;;5023240;28;20216;-63
2024/02/24 01:12:27;;;;;;;7.40;3.85;;;6.50;99.90;;;;;;5022758;28;20283;-63
2024/02/24 01:14:53;;;;;;;8.98;4.43;;;6.40;99.90;;;;;;5022182;28;20226;-62
2024/02/24 01:17:20;;;;;;;7.95;4.43;;;6.40;99.90;;;;;;5023060;28;20248;-63
2024/02/24 01:19:46;;;;;;;6.03;4.00;;;6.40;99.90;;;;;;5022867;28;20587;-62
2024/02/24 01:22:16;;;;;;;5.65;3.92;;;6.30;99.90;;;;;;5022994;28;20215;-65
2024/02/24 01:24:43;;;;;;;5.97;4.13;;;6.30;99.90;;;;;;5022841;28;20184;-64
2024/02/24 01:27:09;;;;;;;7.85;4.22;;;6.30;99.90;;;;;;5021724;28;20267;-64
2024/02/24 01:29:34;;;;;;;6.95;4.38;;;6.20;99.90;;;;;;5022498;28;20295;-64
2024/02/24 01:32:01;;;;;;;6.93;4.45;;;6.20;99.90;;;;;;5022940;28;20198;-63
2024/02/24 01:34:30;;;;;;;8.23;4.53;;;6.20;99.90;;;;;;5023707;28;20187;-62
2024/02/24 01:36:56;;;;;;;9.00;4.68;;;6.10;99.90;;;;;;5022715;28;20283;-64
2024/02/24 01:39:22;;;;;;;6.80;4.70;;;6.10;99.90;;;;;;5022759;28;20583;-63
2024/02/24 01:41:48;;;;;;;6.20;4.75;;;6.10;99.90;;;;;;5022068;28;20223;-65
2024/02/24 01:44:18;;;;;;;8.15;4.95;;;6.00;99.90;;;;;;5022073;28;20195;-63
2024/02/24 01:46:48;;;;;;;10.57;4.65;;;6.00;99.90;;;;;;5022229;28;20225;-63
2024/02/24 01:49:15;;;;;;;8.45;5.15;;;6.00;99.90;;;;;;5022122;28;20200;-64
2024/02/24 01:51:42;;;;;;;8.05;5.13;;;5.90;99.90;;;;;;5022007;28;20223;-63
2024/02/24 01:54:09;;;;;;;8.32;4.65;;;5.90;99.90;;;;;;5022433;28;20274;-63
2024/02/24 01:56:37;;;;;;;8.55;4.97;;;5.90;99.90;;;;;;5022193;28;20782;-64
2024/02/24 01:59:03;;;;;;;9.20;5.22;;;5.90;99.90;;;;;;5022340;28;20200;-64
2024/02/24 02:01:30;;;;;;;10.13;5.85;;;5.90;99.90;;;;;;5021917;28;20251;-63
2024/02/24 02:03:57;;;;;;;7.22;5.18;;;5.90;99.90;;;;;;5021932;28;20198;-62
2024/02/24 02:06:28;;;;;;;7.50;5.38;;;5.90;99.90;;;;;;5021932;28;20727;-62
2024/02/24 02:08:55;;;;;;;7.75;5.75;;;5.90;99.90;;;;;;5022188;28;20184;-63
2024/02/24 02:11:21;;;;;;;6.55;5.18;;;5.90;99.90;;;;;;5022020;28;20187;-65
2024/02/24 02:13:46;;;;;;;8.10;5.57;;;5.80;99.90;;;;;;5022044;28;20234;-63
2024/02/24 02:16:12;;;;;;;11.07;5.70;;;5.80;99.90;;;;;;5021576;28;20301;-63
2024/02/24 02:18:38;;;;;;;7.80;5.47;;;5.80;99.90;;;;;;5021845;28;20219;-64
2024/02/24 02:21:04;;;;;;;8.02;5.13;;;5.80;99.90;;;;;;5022083;28;20341;-65
2024/02/24 02:23:30;;;;;;;8.32;5.63;;;5.80;99.90;;;;;;5021410;28;20710;-65
2024/02/24 02:25:56;;;;;;;12.60;5.50;;;5.70;99.90;;;;;;5021798;28;20195;-64
2024/02/24 02:28:22;;;;;;;8.82;5.47;;;5.70;99.90;;;;;;5021232;28;20211;-64
2024/02/24 02:30:48;;;;;;;10.25;5.85;;;5.70;99.90;;;;;;5036869;28;20633;-63
2024/02/24 02:33:13;;;;;;;9.60;5.22;;;5.70;99.90;;;;;;5021827;28;20551;-65
2024/02/24 02:35:39;;;;;;;9.23;5.65;;;5.60;99.90;;;;;;5021468;28;20191;-65
2024/02/24 02:38:07;;;;;;;8.35;5.80;;;5.60;99.90;;;;;;5021269;28;20576;-64
2024/02/24 02:40:33;;;;;;;10.25;5.95;;;5.60;99.90;;;;;;5022676;28;20287;-63
2024/02/24 02:42:59;;;;;;;10.10;5.80;;;5.60;99.90;;;;;;5021224;28;20273;-63
2024/02/24 02:45:25;;;;;;;9.10;5.78;;;5.60;99.90;;;;;;5021766;28;20215;-62
2024/02/24 02:47:51;;;;;;;9.05;5.85;;;5.50;99.90;;;;;;5021481;28;20237;-64
2024/02/24 02:50:16;;;;;;;7.72;5.20;;;5.50;99.90;;;;;;5021640;28;20291;-64
2024/02/24 02:52:42;;;;;;;6.53;5.30;;;5.50;99.90;;;;;;5021098;28;20284;-66
2024/02/24 02:55:08;;;;;;;7.97;5.47;;;5.40;99.90;;;;;;5020901;28;20219;-63
2024/02/24 02:57:34;;;;;;;9.10;5.45;;;5.40;99.90;;;;;;5036367;28;20196;-63
2024/02/24 03:00:00;;;;;;;9.50;5.18;;;5.40;99.90;;;;;;5021315;28;20370;-63
2024/02/24 03:02:25;;;;;;;10.77;5.45;;;5.40;99.90;;;;;;5021197;28;20219;-64
2024/02/24 03:04:51;;;;;;;6.95;5.32;;;5.40;99.90;;;;;;5021283;28;20192;-64
2024/02/24 03:07:17;;;;;;;8.15;4.95;;;5.40;99.90;;;;;;5021219;28;20188;-64
2024/02/24 03:09:47;;;;;;;8.65;5.32;;;5.30;99.90;;;;;;5021282;28;20525;-63
2024/02/24 03:12:14;;;;;;;6.85;5.07;;;5.40;99.90;;;;;;5020414;28;20192;-63
2024/02/24 03:14:41;;;;;;;8.02;4.88;;;5.30;99.90;;;;;;5021039;28;20204;-64
2024/02/24 03:17:07;;;;;;;9.95;5.68;;;5.30;99.90;;;;;;5021138;28;20195;-62
2024/02/24 03:19:32;;;;;;;8.85;5.60;;;5.30;99.90;;;;;;5023219;28;20199;-64
2024/02/24 03:21:58;;;;;;;7.45;5.03;;;5.30;99.90;;;;;;5021226;28;20223;-64
2024/02/24 03:24:24;;;;;;;6.75;5.05;;;5.20;99.90;;;;;;5020932;28;20188;-62
2024/02/24 03:26:49;;;;;;;7.93;5.13;;;5.20;99.90;;;;;;5021347;28;20184;-62
2024/02/24 03:29:16;;;;;;;8.65;5.38;;;5.20;99.90;;;;;;5036036;28;20199;-63
2024/02/24 03:31:42;;;;;;;9.60;5.20;;;5.20;99.90;;;;;;5021157;28;20290;-62
2024/02/24 03:34:07;;;;;;;7.15;5.00;;;5.20;99.90;;;;;;5021074;28;20204;-64
2024/02/24 03:36:33;;;;;;;8.68;5.47;;;5.20;99.90;;;;;;5020810;28;20192;-63
2024/02/24 03:38:59;;;;;;;8.88;5.30;;;5.10;99.90;;;;;;5024486;28;20656;-64
2024/02/24 03:41:29;;;;;;;8.65;5.38;;;5.10;99.90;;;;;;5020573;28;20228;-63
2024/02/24 03:43:55;;;;;;;8.32;5.05;;;5.10;99.90;;;;;;5020433;28;20981;-63
2024/02/24 03:46:20;;;;;;;8.15;5.47;;;5.10;99.90;;;;;;5020965;28;20268;-64
2024/02/24 03:48:46;;;;;;;8.52;5.07;;;5.00;99.90;;;;;;5021960;28;20297;-64
2024/02/24 03:51:12;;;;;;;8.77;5.20;;;5.00;99.90;;;;;;5024383;28;20207;-63
2024/02/24 03:53:37;;;;;;;8.00;5.10;;;5.00;99.90;;;;;;5023545;28;20196;-63
2024/02/24 03:56:03;;;;;;;8.15;5.85;;;5.00;99.90;;;;;;5024625;28;20291;-62
2024/02/24 03:58:29;;;;;;;8.40;5.43;;;5.00;99.90;;;;;;5024146;28;20549;-61
2024/02/24 04:00:56;;;;;;;7.90;5.00;;;5.00;99.90;;;;;;5024216;28;20195;-64
2024/02/24 04:03:22;;;;;;;11.07;5.75;;;4.90;99.90;;;;;;5024445;28;20219;-63
2024/02/24 04:05:48;;;;;;;10.40;5.50;;;4.90;99.90;;;;;;5024019;28;20180;-63
2024/02/24 04:08:14;;;;;;;8.25;5.38;;;4.90;99.90;;;;;;5024253;28;20191;-63
2024/02/24 04:10:44;;;;;;;8.93;5.20;;;4.90;99.90;;;;;;5026916;28;20207;-61
2024/02/24 04:13:10;;;;;;;6.55;5.30;;;4.90;99.90;;;;;;5024155;28;20207;-63
2024/02/24 04:15:36;;;;;;;10.75;5.32;;;4.90;99.90;;;;;;5023971;28;20277;-63
2024/02/24 04:18:03;;;;;;;6.55;5.55;;;4.90;99.90;;;;;;5023635;28;20626;-63
2024/02/24 04:20:29;;;;;;;8.38;5.40;;;4.90;99.90;;;;;;5025363;28;20191;-65
2024/02/24 04:22:55;;;;;;;7.53;5.38;;;4.80;99.90;;;;;;5025407;28;20587;-64
2024/02/24 04:25:20;;;;;;;12.07;5.55;;;4.80;99.90;;;;;;5024192;28;21126;-64
2024/02/24 04:27:46;;;;;;;9.65;5.68;;;4.80;99.90;;;;;;5024036;28;20551;-63
2024/02/24 04:30:12;;;;;;;8.98;5.18;;;4.80;99.90;;;;;;5022988;28;20188;-62
2024/02/24 04:32:38;;;;;;;7.95;5.35;;;4.80;99.90;;;;;;5023696;28;20277;-63
2024/02/24 04:35:04;;;;;;;7.25;5.10;;;4.80;99.90;;;;;;5023461;28;20199;-62
2024/02/24 04:37:29;;;;;;;8.00;5.45;;;4.80;99.90;;;;;;5023703;28;20183;-62
2024/02/24 04:39:55;;;;;;;8.20;5.03;;;4.80;99.90;;;;;;5023424;28;20350;-63
2024/02/24 04:42:21;;;;;;;6.85;4.90;;;4.80;99.90;;;;;;5022846;28;20706;-63
2024/02/24 04:44:49;;;;;;;7.20;5.30;;;4.80;99.90;;;;;;5023353;28;20270;-64
2024/02/24 04:47:16;;;;;;;7.53;5.00;;;4.80;99.90;;;;;;5023918;28;20188;-64
2024/02/24 04:49:42;;;;;;;9.32;5.20;;;4.70;99.90;;;;;;5023272;28;20184;-64
2024/02/24 04:52:07;;;;;;;7.38;5.20;;;4.70;99.90;;;;;;5022920;28;20207;-62
2024/02/24 04:54:33;;;;;;;8.82;5.50;;;4.70;99.90;;;;;;5022976;28;20198;-63
2024/02/24 04:56:59;;;;;;;8.90;5.13;;;4.70;99.90;;;;;;5023280;28;20187;-63
2024/02/24 04:59:24;;;;;;;8.05;5.35;;;4.70;99.90;;;;;;5023239;28;20203;-64
2024/02/24 05:01:50;;;;;;;6.85;4.50;;;4.70;99.90;;;;;;5022480;28;20346;-65
2024/02/24 05:04:16;;;;;;;8.48;5.22;;;4.60;99.90;;;;;;5022472;28;20191;-64
2024/02/24 05:06:41;;;;;;;10.35;5.00;;;4.60;99.90;;;;;;5023146;28;20222;-65
2024/02/24 05:09:11;;;;;;;11.50;5.03;;;4.60;99.90;;;;;;5022732;28;20230;-64
2024/02/24 05:11:37;;;;;;;8.18;4.72;;;4.60;99.90;;;;;;5023066;28;20290;-64
2024/02/24 05:14:03;;;;;;;7.40;5.15;;;4.60;99.90;;;;;;5023150;28;20282;-65
2024/02/24 05:16:29;;;;;;;7.20;5.07;;;4.60;99.90;;;;;;5022815;28;20220;-64
2024/02/24 05:18:54;;;;;;;8.23;5.38;;;4.60;99.90;;;;;;5023754;28;20206;-64
2024/02/24 05:21:21;;;;;;;8.18;4.72;;;4.50;99.90;;;;;;5022617;28;20203;-64
2024/02/24 05:23:47;;;;;;;8.30;5.35;;;4.60;99.90;;;;;;5022750;28;20726;-65
2024/02/24 05:26:29;;;;;;;9.55;5.50;;;4.60;99.90;;;;;;5022653;28;20200;-63
2024/02/24 05:28:55;;;;;;;9.07;5.30;;;4.60;99.90;;;;;;5022468;28;20279;-64
2024/02/24 05:31:21;;;;;;;8.55;5.43;;;4.60;99.90;;;;;;5022861;28;20187;-63
2024/02/24 05:33:47;;;;;;;9.52;5.20;;;4.60;99.90;;;;;;5021293;28;20188;-62
2024/02/24 05:36:14;;;;;;;9.60;5.05;;;4.60;99.90;;;;;;5022461;28;20203;-65
2024/02/24 05:38:40;;;;;;;8.23;5.10;;;4.60;99.90;;;;;;5022768;28;20196;-65
2024/02/24 05:41:06;;;;;;;9.60;5.47;;;4.60;99.90;;;;;;5022451;28;20282;-64
2024/02/24 05:43:35;;;;;;;10.93;5.35;;;4.60;99.90;;;;;;5022059;28;20224;-63
2024/02/24 05:46:06;;;;;;;11.25;5.63;;;4.60;99.90;;;;;;5022357;28;20592;-64
2024/02/24 05:48:33;;;;;;;9.10;5.70;;;4.60;99.90;;;;;;5021988;28;20278;-64
2024/02/24 05:50:59;;;;;;;11.40;5.72;;;4.60;99.90;;;;;;5022349;28;20216;-63
2024/02/24 05:53:25;;;;;;;10.23;5.53;;;4.60;99.90;;;;;;5022100;28;20281;-64
2024/02/24 05:55:51;;;;;;;8.93;5.45;;;4.60;99.90;;;;;;5009728;28;20656;-65
2024/02/24 05:58:17;;;;;;;8.00;5.30;;;4.60;99.90;;;;;;5022232;28;21022;-64
2024/02/24 06:00:42;;;;;;;7.97;5.35;;;4.60;99.90;;;;;;5021899;28;20191;-64
2024/02/24 06:03:11;;;;;;;12.38;5.55;;;4.60;99.90;;;;;;5021507;28;20219;-63
2024/02/24 06:05:38;;;;;;;8.35;4.97;;;4.60;99.90;;;;;;5020736;28;20196;-62
2024/02/24 06:08:04;;;;;;;8.88;5.43;;;4.60;99.90;;;;;;5022043;28;20260;-61
2024/02/24 06:10:30;;;;;;;10.25;4.95;;;4.60;99.90;;;;;;5021480;28;20195;-70
2024/02/24 06:12:57;;;;;;;9.82;5.85;;;4.60;99.90;;;;;;5021863;28;20204;-63
2024/02/24 06:15:23;;;;;;;6.75;4.88;;;4.60;99.90;;;;;;5021548;28;21094;-67
2024/02/24 06:17:49;;;;;;;9.40;5.53;;;4.60;99.90;;;;;;5022121;28;20196;-66
2024/02/24 06:20:15;;;;;;;7.82;5.43;;;4.60;99.90;;;;;;5021503;28;20184;-68
2024/02/24 06:22:41;;;;;;;8.18;5.38;;;4.60;99.90;;;;;;5021964;28;20212;-67
2024/02/24 06:25:07;;;;;;;8.10;5.28;;;4.60;99.90;;;;;;5021491;28;20674;-67
2024/02/24 06:27:32;;;;;;;9.13;5.10;;;4.60;99.90;;;;;;5019863;28;20203;-68
2024/02/24 06:29:58;;;;;;;8.82;5.20;;;4.60;99.90;;;;;;5021818;28;20191;-66
2024/02/24 06:32:24;;;;;;;7.47;5.65;;;4.70;99.90;;;;;;5036878;28;20252;-68
2024/02/24 06:34:50;;;;;;;7.60;4.97;;;4.70;99.90;;;;;;5020709;28;20605;-71
2024/02/24 06:37:15;;;;;;;8.05;5.32;;;4.60;99.90;;;;;;5021072;28;20192;-70
2024/02/24 06:39:41;;;;;;;5.78;4.63;;;4.70;99.90;;;;;;5022042;28;20279;-69
2024/02/24 06:42:07;;;;;;;9.02;5.10;;;4.70;99.90;;;;;;5021397;28;20239;-71
2024/02/24 06:44:32;;;;;;;8.65;5.07;;;4.70;99.90;;;;;;5021461;28;20262;-69
2024/02/24 06:46:58;;;;;;;7.32;4.88;;;4.60;99.90;;;;;;5021205;28;20199;-69
2024/02/24 06:49:24;;;;;;;6.15;4.65;;;4.70;99.90;;;;;;5020157;28;20301;-62
2024/02/24 06:51:51;;;;;;;8.82;5.60;;;4.70;99.90;;;;;;5021377;28;20239;-64
2024/02/24 06:54:16;;;;;;;6.88;5.32;;;4.60;99.90;;;;;;5021019;28;20617;-62
2024/02/24 06:56:42;;;;;;;8.05;5.35;;;4.70;99.90;;;;;;5018658;28;20274;-61
2024/02/24 06:59:08;;;;;;;7.45;5.60;;;4.70;99.90;;;;;;5020923;28;20191;-63
2024/02/24 07:01:34;;;;;;;9.60;5.75;;;4.70;99.90;;;;;;5021011;28;20192;-63
2024/02/24 07:04:00;;;;;;;8.77;5.68;;;4.70;99.90;;;;;;5020876;28;20279;-62
2024/02/24 07:06:25;;;;;;;7.43;5.18;;;4.80;99.90;;;;;;5020653;28;20715;-63
2024/02/24 07:08:51;;;;;;;10.55;5.10;;;4.80;99.90;;;;;;5021513;28;20287;-61
2024/02/24 07:11:17;;;;;;;9.77;6.15;;;4.80;99.90;;;;;;5020922;28;20227;-62
2024/02/24 07:13:43;;;;;;;7.38;5.95;;;4.90;99.90;;;;;;5021278;28;20286;-62
2024/02/24 07:16:09;;;;;;;7.43;5.40;;;4.90;99.90;;;;;;5020888;28;20192;-62
2024/02/24 07:18:36;;;;;;;7.65;5.43;;;4.90;99.90;;;;;;5021286;28;20753;-62
2024/02/24 07:21:02;;;;;;;9.07;5.13;;;4.90;99.90;;;;;;5020739;28;20191;-62
2024/02/24 07:23:28;;;;;;;8.57;5.30;;;4.90;99.90;;;;;;5020898;28;20765;-60
2024/02/24 07:25:54;;;;;;;7.50;5.40;;;5.00;99.90;;;;;;5024843;28;20195;-60
2024/02/24 07:28:19;;;;;;;10.02;5.75;;;5.00;99.90;;;;;;5024870;28;20246;-63
2024/02/24 07:30:45;;;;;;;8.48;5.97;;;5.00;99.90;;;;;;5024514;28;20184;-62
2024/02/24 07:33:11;;;;;;;7.25;5.20;;;5.00;99.90;;;;;;5024766;28;20204;-63
2024/02/24 07:35:37;;;;;;;8.38;5.22;;;5.00;99.90;;;;;;5024721;28;20203;-60
2024/02/24 07:38:03;;;;;;;8.82;5.32;;;5.00;99.90;;;;;;5024784;28;20196;-62
2024/02/24 07:40:29;;;;;;;9.18;5.60;;;5.10;99.90;;;;;;5024558;28;20214;-62
2024/02/24 07:42:54;;;;;;;11.10;5.50;;;5.20;99.90;;;;;;5024275;28;20352;-61
2024/02/24 07:45:22;;;;;;;10.70;5.32;;;5.20;99.90;;;;;;5024411;28;20192;-62
2024/02/24 07:47:48;;;;;;;8.57;5.13;;;5.30;99.90;;;;;;5024400;28;20180;-64
2024/02/24 07:50:15;;;;;;;9.70;5.93;;;5.30;99.90;;;;;;5024124;28;20190;-61
2024/02/24 07:52:40;;;;;;;10.15;6.15;;;5.40;99.90;;;;;;5024778;28;20303;-60
2024/02/24 07:55:06;;;;;;;8.02;5.60;;;5.50;99.90;;;;;;5022857;28;20980;-61
2024/02/24 07:57:32;;;;;;;7.95;5.97;;;5.60;99.90;;;;;;5023899;28;20505;-63
2024/02/24 07:59:58;;;;;;;7.05;5.40;;;5.60;99.90;;;;;;5024079;28;20196;-64
2024/02/24 08:02:23;;;;;;;7.97;5.25;;;5.70;99.90;;;;;;5026167;28;20211;-62
2024/02/24 08:04:49;;;;;;;7.70;5.35;;;5.80;99.90;;;;;;5023450;28;21105;-64
2024/02/24 08:07:15;;;;;;;7.88;5.43;;;5.90;99.90;;;;;;5023657;28;20222;-64
2024/02/24 08:09:41;;;;;;;7.57;5.53;;;5.90;99.90;;;;;;5024016;28;21123;-63
2024/02/24 08:12:06;;;;;;;9.13;5.70;;;6.00;99.90;;;;;;5023747;28;20195;-63
2024/02/24 08:14:32;;;;;;;6.60;5.25;;;6.10;99.90;;;;;;5023924;28;21110;-63
2024/02/24 08:16:58;;;;;;;7.80;5.57;;;6.20;99.90;;;;;;5024241;28;20208;-63
2024/02/24 08:19:24;;;;;;;9.68;5.65;;;6.30;99.90;;;;;;5024185;28;20549;-61
2024/02/24 08:21:50;;;;;;;8.50;5.60;;;6.40;99.90;;;;;;5023988;28;20215;-64
2024/02/24 08:24:16;;;;;;;10.55;5.85;;;6.50;99.90;;;;;;5023323;28;20179;-61
2024/02/24 08:26:44;;;;;;;8.30;5.53;;;6.60;99.90;;;;;;5027892;28;20238;-64
2024/02/24 08:29:10;;;;;;;9.10;6.03;;;6.60;99.90;;;;;;5023676;28;20204;-61
2024/02/24 08:31:37;;;;;;;7.43;5.47;;;6.70;99.90;;;;;;5023835;28;20184;-63
2024/02/24 08:34:03;;;;;;;8.27;6.43;;;6.80;99.90;;;;;;5023632;28;20654;-62
2024/02/24 08:36:29;;;;;;;8.93;5.90;;;6.90;99.90;;;;;;5023029;28;20241;-62
2024/02/24 08:38:56;;;;;;;8.88;6.07;;;7.00;99.90;;;;;;5023620;28;20230;-63
2024/02/24 08:41:22;;;;;;;9.15;5.80;;;7.10;99.90;;;;;;5022624;28;20255;-62
2024/02/24 08:43:48;;;;;;;9.05;6.28;;;7.20;99.90;;;;;;5024607;28;20267;-63
2024/02/24 08:46:14;;;;;;;9.80;6.53;;;7.30;99.90;;;;;;5022942;28;20307;-63
2024/02/24 08:48:40;;;;;;;8.48;6.13;;;7.30;99.90;;;;;;5023158;28;20776;-61
2024/02/24 08:51:06;;;;;;;8.32;5.60;;;7.40;99.90;;;;;;5023267;28;20196;-62
2024/02/24 08:53:32;;;;;;;9.52;6.18;;;7.50;99.90;;;;;;5022990;28;20192;-62
2024/02/24 08:56:03;;;;;;;8.32;6.05;;;7.60;99.90;;;;;;5022637;28;20196;-62
2024/02/24 08:58:29;;;;;;;9.32;6.22;;;7.70;99.90;;;;;;5037523;28;20224;-62
2024/02/24 09:00:56;;;;;;;8.10;6.15;;;7.70;99.90;;;;;;5038414;28;20222;-63
2024/02/24 09:03:22;;;;;;;10.45;6.72;;;7.80;99.90;;;;;;5023073;28;20212;-64
2024/02/24 09:05:48;;;;;;;7.88;6.25;;;7.90;99.90;;;;;;5022280;28;20281;-64
2024/02/24 09:08:14;;;;;;;11.98;6.47;;;7.90;99.90;;;;;;5037871;28;20192;-64
2024/02/24 09:10:40;;;;;;;9.25;6.20;;;8.00;99.90;;;;;;5022698;28;20267;-63
2024/02/24 09:13:06;;;;;;;10.15;7.10;;;8.10;99.90;;;;;;5023254;28;20199;-64
2024/02/24 09:15:31;;;;;;;10.63;6.88;;;8.10;99.90;;;;;;5022488;28;20188;-63
2024/02/24 09:17:58;;;;;;;8.07;6.35;;;8.20;99.90;;;;;;5022193;28;20277;-62
2024/02/24 09:20:24;;;;;;;11.52;7.50;;;8.30;99.90;;;;;;5022540;28;20195;-62
2024/02/24 09:22:49;;;;;;;10.15;7.45;;;8.30;99.90;;;;;;5022431;28;20587;-63
2024/02/24 09:25:16;;;;;;;12.95;7.80;;;8.40;99.90;;;;;;5021938;28;20196;-62
2024/02/24 09:27:42;;;;;;;10.65;7.88;;;8.40;99.90;;;;;;5022200;28;20207;-63
2024/02/24 09:30:10;;;;;;;12.13;8.10;;;8.50;99.90;;;;;;5021911;28;20179;-74
2024/02/24 09:32:41;;;;;;;10.05;7.65;;;8.50;99.90;;;;;;5021733;28;20207;-65
2024/02/24 09:35:08;;;;;;;11.45;7.70;;;8.70;99.90;;;;;;5021987;28;20229;-60
2024/02/24 09:37:34;;;;;;;13.18;7.85;;;8.70;99.90;;;;;;5022162;28;20241;-64
2024/02/24 09:40:06;;;;;;;11.88;8.13;;;8.80;99.90;;;;;;5020833;28;20660;-64
2024/02/24 09:42:33;;;;;;;12.00;8.50;;;8.80;99.90;;;;;;5021012;28;20255;-68
2024/02/24 09:45:02;;;;;;;12.00;8.75;;;8.90;99.90;;;;;;5022088;28;20192;-64
2024/02/24 09:47:29;;;;;;;12.93;9.10;;;8.90;99.90;;;;;;5023514;28;20184;-63
2024/02/24 09:49:57;;;;;;;12.60;8.70;;;8.90;99.90;;;;;;5022291;28;20191;-64
2024/02/24 09:52:23;;;;;;;13.93;9.35;;;8.90;99.90;;;;;;5021604;28;20200;-64
2024/02/24 09:54:49;;;;;;;17.10;10.77;;;8.90;99.90;;;;;;5021983;28;20187;-62
2024/02/24 09:57:20;;;;;;;15.60;9.20;;;9.00;99.90;;;;;;5021278;28;20188;-69
2024/02/24 09:59:48;;;;;;;16.33;9.48;;;9.00;99.90;;;;;;5021374;28;20682;-68
2024/02/24 10:02:14;;;;;;;13.93;10.13;;;9.00;99.90;;;;;;5037060;28;20760;-68
2024/02/24 10:04:40;;;;;;;11.98;9.15;;;9.00;99.90;;;;;;5021851;28;20208;-68
2024/02/24 10:07:06;;;;;;;15.05;10.02;;;9.00;99.90;;;;;;5023377;28;20192;-70
2024/02/24 10:09:33;;;;;;;16.45;10.18;;;9.00;99.90;;;;;;5021231;28;20180;-66
2024/02/24 10:12:02;;;;;;;15.07;10.63;;;9.00;99.90;;;;;;5020546;28;20550;-67
2024/02/24 10:14:29;;;;;;;15.00;10.55;;;9.00;99.90;;;;;;5020841;28;20624;-63
2024/02/24 10:16:58;;;;;;;13.65;10.38;;;9.10;99.90;;;;;;5020717;28;20282;-68
2024/02/24 10:19:27;;;;;;;13.57;10.73;;;9.20;99.90;;;;;;5020019;28;20191;-68
2024/02/24 10:21:53;;;;;;;14.73;10.88;;;9.20;99.90;;;;;;5021363;28;20195;-69
2024/02/24 10:24:20;;;;;;;14.27;10.70;;;9.30;99.90;;;;;;5020905;28;20636;-62
2024/02/24 10:26:51;;;;;;;17.15;11.55;;;9.40;99.90;;;;;;5021145;28;20187;-62
2024/02/24 10:29:17;;;;;;;15.98;11.80;;;9.50;99.90;;;;;;5020541;28;20192;-66
2024/02/24 10:31:44;;;;;;;14.82;11.13;;;9.50;99.90;;;;;;5021304;28;20183;-63
2024/02/24 10:34:12;;;;;;;14.63;11.20;;;9.50;99.90;;;;;;5021420;28;20188;-63
2024/02/24 10:36:39;;;;;;;15.48;11.52;;;9.60;99.90;;;;;;5021310;28;21030;-63
2024/02/24 10:39:06;;;;;;;15.48;11.02;;;9.70;99.90;;;;;;5021088;28;20632;-64
2024/02/24 10:41:33;;;;;;;18.08;12.73;;;9.90;99.90;;;;;;5021294;28;20675;-67
2024/02/24 10:43:59;;;;;;;15.00;11.32;;;10.00;99.90;;;;;;5021668;28;20227;-62
2024/02/24 10:46:25;;;;;;;15.32;10.50;;;10.10;99.90;;;;;;5021587;28;20222;-67
2024/02/24 10:48:51;;;;;;;15.85;11.43;;;10.20;99.90;;;;;;5021408;28;20723;-62
2024/02/24 10:51:17;;;;;;;14.55;10.80;;;10.20;99.90;;;;;;5021461;28;20210;-65
2024/02/24 10:53:51;;;;;;;14.52;10.48;;;10.20;99.90;;;;;;5021269;28;20709;-69
2024/02/24 10:56:20;;;;;;;12.05;9.57;;;10.20;99.90;;;;;;5021293;28;20509;-63
2024/02/24 10:58:47;;;;;;;16.80;10.60;;;10.20;99.90;;;;;;5023307;28;20202;-62
2024/02/24 11:01:14;;;;;;;15.95;9.98;;;10.30;99.90;;;;;;5025480;28;20651;-64
2024/02/24 11:03:39;;;;;;;15.80;9.95;;;10.30;99.90;;;;;;5011001;28;20639;-63
2024/02/24 11:06:06;;;;;;;13.98;9.23;;;10.30;99.90;;;;;;5024976;28;20242;-63
2024/02/24 11:08:45;;;;;;;13.70;9.57;;;10.30;99.90;;;;;;5024976;28;20199;-63
2024/02/24 11:11:13;;;;;;;14.00;9.30;;;10.30;99.90;;;;;;5024979;28;20191;-64
2024/02/24 11:13:46;;;;;;;12.57;8.98;;;10.30;99.90;;;;;;5025051;28;20208;-62
2024/02/24 11:16:12;;;;;;;12.50;8.43;;;10.30;99.90;;;;;;5024643;28;20218;-61
2024/02/24 11:18:47;;;;;;;17.90;8.73;;;10.20;99.90;;;;;;5025679;28;20244;-62
2024/02/24 11:21:13;;;;;;;12.10;8.75;;;10.10;99.90;;;;;;5024663;28;20683;-64
2024/02/24 11:23:43;;;;;;;12.65;8.75;;;10.10;99.90;;;;;;5024436;28;20294;-62
2024/02/24 11:26:12;;;;;;;11.65;8.80;;;10.10;99.90;;;;;;5024626;28;20230;-63
2024/02/24 11:28:44;;;;;;;13.65;8.98;;;10.00;99.90;;;;;;5024309;28;20199;-65
2024/02/24 11:31:16;;;;;;;11.02;8.18;;;10.00;99.90;;;;;;5025056;28;20180;-70
2024/02/24 11:33:42;;;;;;;12.73;8.80;;;10.00;99.90;;;;;;5023833;28;20510;-69
2024/02/24 11:36:10;;;;;;;11.13;8.55;;;10.00;99.90;;;;;;5011430;28;20214;-69
2024/02/24 11:38:36;;;;;;;14.63;9.35;;;10.00;99.90;;;;;;5024541;28;20204;-63
2024/02/24 11:41:06;;;;;;;10.20;8.00;;;10.00;99.90;;;;;;5024406;28;20192;-63
2024/02/24 11:43:32;;;;;;;11.48;8.65;;;10.00;99.90;;;;;;5023848;28;20239;-61
2024/02/24 11:45:59;;;;;;;11.02;8.40;;;10.10;99.90;;;;;;5039376;28;20184;-63
2024/02/24 11:48:25;;;;;;;13.13;7.82;;;10.10;99.90;;;;;;5024240;28;20210;-62
2024/02/24 11:50:51;;;;;;;13.77;8.20;;;10.20;99.90;;;;;;5024270;28;20191;-63
2024/02/24 11:53:19;;;;;;;13.07;7.80;;;10.20;99.90;;;;;;5023947;28;20196;-65
2024/02/24 11:55:46;;;;;;;9.82;7.03;;;10.30;99.90;;;;;;5023687;28;20200;-63
2024/02/24 11:58:13;;;;;;;12.00;7.20;;;10.30;99.90;;;;;;5023588;28;20328;-62
2024/02/24 12:00:40;;;;;;;10.85;7.20;;;10.30;99.90;;;;;;5024708;28;20184;-63
2024/02/24 12:03:11;;;;;;;11.20;7.28;;;10.40;99.90;;;;;;5023898;28;20247;-62
2024/02/24 12:05:37;;;;;;;8.13;7.03;;;10.40;99.90;;;;;;5024196;28;20183;-64
2024/02/24 12:08:05;;;;;;;11.95;6.75;;;10.50;99.90;;;;;;5024320;28;20234;-68
2024/02/24 12:10:38;;;;;;;11.18;8.05;;;10.50;99.90;;;;;;5023499;28;20210;-62
2024/02/24 12:13:12;;;;;;;9.48;7.47;;;10.50;99.90;;;;;;5023898;28;20257;-66
2024/02/24 12:15:48;;;;;;;13.13;7.35;;;10.60;99.90;;;;;;5023820;28;20187;-65
2024/02/24 12:18:14;;;;;;;12.40;6.80;;;10.60;99.90;;;;;;5023851;28;20187;-70
2024/02/24 12:20:41;;;;;;;10.80;6.63;;;10.60;99.90;;;;;;5023953;28;20192;-64
2024/02/24 12:23:09;;;;;;;12.25;6.38;;;10.70;99.90;;;;;;5023910;28;20211;-64
2024/02/24 12:25:35;;;;;;;9.73;6.38;;;10.80;99.90;;;;;;5023684;28;20307;-63
2024/02/24 12:28:04;;;;;;;10.02;7.05;;;10.80;99.90;;;;;;5023499;28;21246;-64
2024/02/24 12:30:46;;;;;;;8.77;6.15;;;10.90;99.90;;;;;;5023622;28;20211;-67
2024/02/24 12:33:14;;;;;;;8.00;5.93;;;10.90;99.90;;;;;;5023339;28;20199;-62
2024/02/24 12:35:40;;;;;;;8.55;5.70;;;11.00;99.90;;;;;;5038847;28;20208;-63
2024/02/24 12:38:06;;;;;;;9.52;5.53;;;11.00;99.90;;;;;;5023503;28;20203;-62
2024/02/24 12:40:36;;;;;;;10.57;5.80;;;10.90;99.90;;;;;;5023672;28;20279;-62
2024/02/24 12:43:03;;;;;;;8.05;5.85;;;10.90;99.90;;;;;;5023045;28;20687;-64
2024/02/24 12:45:29;;;;;;;7.97;6.03;;;10.80;99.90;;;;;;5023342;28;20202;-65
2024/02/24 12:47:55;;;;;;;11.48;6.25;;;10.70;99.90;;;;;;5023792;28;20295;-63